Station Historical Data
Daily Summary for April 13, 2017 Units:  English    Metric   Both
« Previous Day
Next Day »
Daily Weekly Monthly Yearly Custom
  High: Low: Average:
Temperature: 45.9 °F 39.1 °F 42.4 °F
Dew Point: 43.2 °F 36.7 °F 39.9 °F
Humidity: 91 % 90 % 91 %
Wind Speed: 21.0 mph 0.0 mph 3.8 mph
Wind Gust: 28.0 mph - -
Wind:- - SSW
Pressure: 30.20 in 29.90 in -
Precipitation: 1.14 in    
Historical Graphs
 
 
Tabular Data for April 13, 2017
Time Temperature Dew Point Pressure Wind Wind Speed Wind Gust Humidity Rainfall Rate (Hourly) solar
00:04 45.9 °F 43.1 °F 29.94 in South 8.0 mph 14.0 mph 90 % 0.05 in 0.00 W/m2
00:09 45.8 °F 43.0 °F 29.94 in South 10.0 mph 14.0 mph 90 % 0.05 in 0.00 W/m2
00:14 45.8 °F 43.0 °F 29.94 in South 11.0 mph 19.0 mph 90 % 0.05 in 0.00 W/m2
00:19 45.7 °F 42.9 °F 29.93 in South 10.0 mph 23.0 mph 90 % 0.04 in 0.00 W/m2
00:24 45.7 °F 42.9 °F 29.93 in South 13.0 mph 18.0 mph 90 % 0.04 in 0.00 W/m2
00:29 45.6 °F 42.8 °F 29.93 in South 5.0 mph 18.0 mph 90 % 0.04 in 0.00 W/m2
00:34 45.6 °F 42.8 °F 29.94 in South 11.0 mph 19.0 mph 90 % 0.05 in 0.00 W/m2
00:40 45.6 °F 42.8 °F 29.93 in South 8.0 mph 17.0 mph 90 % 0.05 in 0.00 W/m2
00:45 45.6 °F 42.8 °F 29.93 in SSE 10.0 mph 19.0 mph 90 % 0.05 in 0.00 W/m2
00:50 45.6 °F 42.8 °F 29.93 in South 19.0 mph 22.0 mph 90 % 0.04 in 0.00 W/m2
00:55 45.6 °F 42.8 °F 29.93 in South 15.0 mph 20.0 mph 90 % 0.04 in 0.00 W/m2
01:00 45.6 °F 42.8 °F 29.93 in SSE 6.0 mph 12.0 mph 90 % 0.05 in 0.00 W/m2
01:05 45.6 °F 42.8 °F 29.93 in South 4.0 mph 18.0 mph 90 % 0.05 in 0.00 W/m2
01:10 45.6 °F 42.8 °F 29.93 in Calm   15.0 mph 90 % 0.05 in 0.00 W/m2
01:15 45.7 °F 42.9 °F 29.93 in SSW 10.0 mph 16.0 mph 90 % 0.04 in 0.00 W/m2
01:20 45.7 °F 42.9 °F 29.93 in SSW 17.0 mph 19.0 mph 90 % 0.04 in 0.00 W/m2
01:25 45.8 °F 43.0 °F 29.93 in South 12.0 mph 22.0 mph 90 % 0.05 in 0.00 W/m2
01:30 45.7 °F 42.9 °F 29.93 in SSE 13.0 mph 17.0 mph 90 % 0.05 in 0.00 W/m2
01:35 45.6 °F 42.8 °F 29.93 in SSW 11.0 mph 21.0 mph 90 % 0.05 in 0.00 W/m2
01:40 45.6 °F 42.8 °F 29.93 in SSW 4.0 mph 18.0 mph 90 % 0.04 in 0.00 W/m2
01:45 45.6 °F 42.8 °F 29.93 in South 2.0 mph 16.0 mph 90 % 0.04 in 0.00 W/m2
01:50 45.5 °F 42.7 °F 29.92 in South 6.0 mph 16.0 mph 90 % 0.04 in 0.00 W/m2
01:55 45.5 °F 42.7 °F 29.92 in South 10.0 mph 19.0 mph 90 % 0.05 in 0.00 W/m2
02:00 45.5 °F 42.7 °F 29.92 in South 9.0 mph 19.0 mph 90 % 0.05 in 0.00 W/m2
02:05 45.5 °F 42.7 °F 29.92 in SSW 4.0 mph 13.0 mph 90 % 0.05 in 0.00 W/m2
02:10 45.5 °F 42.7 °F 29.92 in SSE 9.0 mph 17.0 mph 90 % 0.04 in 0.00 W/m2
02:15 45.5 °F 42.7 °F 29.92 in SSW 15.0 mph 19.0 mph 90 % 0.04 in 0.00 W/m2
02:20 45.5 °F 42.7 °F 29.91 in SSE 10.0 mph 23.0 mph 90 % 0.05 in 0.00 W/m2
02:25 45.5 °F 42.7 °F 29.91 in South 10.0 mph 20.0 mph 90 % 0.05 in 0.00 W/m2
02:30 45.5 °F 42.7 °F 29.92 in South 6.0 mph 24.0 mph 90 % 0.05 in 0.00 W/m2
02:35 45.5 °F 42.7 °F 29.91 in SSW 10.0 mph 20.0 mph 90 % 0.04 in 0.00 W/m2
02:40 45.5 °F 42.7 °F 29.92 in South 7.0 mph 21.0 mph 90 % 0.04 in 0.00 W/m2
02:45 45.6 °F 42.8 °F 29.91 in South 7.0 mph 17.0 mph 90 % 0.04 in 0.00 W/m2
02:50 45.6 °F 42.8 °F 29.91 in South 7.0 mph 19.0 mph 90 % 0.05 in 0.00 W/m2
02:55 45.6 °F 42.8 °F 29.91 in South 21.0 mph 21.0 mph 90 % 0.05 in 0.00 W/m2
03:00 45.6 °F 42.8 °F 29.91 in South 7.0 mph 19.0 mph 90 % 0.05 in 0.00 W/m2
03:05 45.7 °F 42.9 °F 29.91 in South 15.0 mph 22.0 mph 90 % 0.04 in 0.00 W/m2
03:10 45.7 °F 42.9 °F 29.91 in WSW 3.0 mph 21.0 mph 90 % 0.04 in 0.00 W/m2
03:15 45.7 °F 42.9 °F 29.91 in SW 13.0 mph 19.0 mph 90 % 0.05 in 0.00 W/m2
03:20 45.7 °F 42.9 °F 29.91 in SSW 10.0 mph 23.0 mph 90 % 0.05 in 0.00 W/m2
03:25 45.7 °F 42.9 °F 29.91 in SW 5.0 mph 17.0 mph 90 % 0.05 in 0.00 W/m2
03:30 45.7 °F 43.2 °F 29.91 in SW 6.0 mph 22.0 mph 91 % 0.04 in 0.00 W/m2
03:35 45.7 °F 43.2 °F 29.91 in SSW 12.0 mph 19.0 mph 91 % 0.04 in 0.00 W/m2
03:40 45.7 °F 42.9 °F 29.91 in SW 11.0 mph 18.0 mph 90 % 0.04 in 0.00 W/m2
03:46 45.7 °F 42.9 °F 29.91 in SW 9.0 mph 18.0 mph 90 % 0.04 in 0.00 W/m2
03:50 45.6 °F 42.8 °F 29.91 in SW 12.0 mph 21.0 mph 90 % 0.04 in 0.00 W/m2
03:55 45.6 °F 42.8 °F 29.91 in SSW 3.0 mph 28.0 mph 90 % 0.04 in 0.00 W/m2
04:00 45.6 °F 43.1 °F 29.91 in SW 13.0 mph 18.0 mph 91 % 0.04 in 0.00 W/m2
04:05 45.5 °F 43.0 °F 29.91 in South 6.0 mph 18.0 mph 91 % 0.04 in 0.00 W/m2
04:10 45.5 °F 43.0 °F 29.91 in SSW 15.0 mph 21.0 mph 91 % 0.04 in 0.00 W/m2
04:15 45.4 °F 42.9 °F 29.91 in SSW 4.0 mph 12.0 mph 91 % 0.04 in 0.00 W/m2
04:20 45.4 °F 42.9 °F 29.91 in SW 4.0 mph 12.0 mph 91 % 0.04 in 0.00 W/m2
04:25 45.4 °F 42.9 °F 29.91 in SW 13.0 mph 17.0 mph 91 % 0.04 in 0.00 W/m2
04:30 45.4 °F 42.9 °F 29.90 in SSW 7.0 mph 12.0 mph 91 % 0.04 in 0.00 W/m2
04:35 45.4 °F 42.9 °F 29.91 in Calm   15.0 mph 91 % 0.04 in 0.00 W/m2
04:40 45.4 °F 42.9 °F 29.91 in SSW 10.0 mph 12.0 mph 91 % 0.04 in 0.00 W/m2
04:45 45.4 °F 42.9 °F 29.91 in SSW 9.0 mph 22.0 mph 91 % 0.04 in 0.00 W/m2
04:50 44.6 °F 42.1 °F 29.92 in WSW 10.0 mph 21.0 mph 91 % 0.04 in 0.00 W/m2
04:55 43.7 °F 41.2 °F 29.92 in WSW 7.0 mph 23.0 mph 91 % 0.04 in 0.00 W/m2
05:00 43.1 °F 40.4 °F 29.92 in SW 11.0 mph 14.0 mph 90 % 0.04 in 0.00 W/m2
05:05 42.8 °F 40.1 °F 29.92 in SSW 12.0 mph 16.0 mph 90 % 0.04 in 0.00 W/m2
05:10 42.5 °F 39.8 °F 29.92 in Calm   12.0 mph 90 % 0.04 in 0.00 W/m2
05:15 42.3 °F 39.6 °F 29.92 in WSW 5.0 mph 14.0 mph 90 % 0.04 in 0.00 W/m2
05:20 42.1 °F 39.4 °F 29.92 in SW 1.0 mph 10.0 mph 90 % 0.04 in 0.00 W/m2
05:25 42.0 °F 39.3 °F 29.93 in SW 6.0 mph 7.0 mph 90 % 0.04 in 0.00 W/m2
05:30 41.9 °F 39.2 °F 29.92 in SSW 8.0 mph 12.0 mph 90 % 0.04 in 0.00 W/m2
05:35 41.8 °F 39.1 °F 29.93 in Calm   12.0 mph 90 % 0.00 in 0.00 W/m2
05:40 41.8 °F 39.1 °F 29.93 in SSE 5.0 mph 10.0 mph 90 % 0.00 in 0.00 W/m2
05:45 41.8 °F 39.1 °F 29.93 in Calm   8.0 mph 90 % 0.00 in 0.00 W/m2
05:50 41.9 °F 39.5 °F 29.93 in SSW 2.0 mph 8.0 mph 91 % 0.04 in 0.00 W/m2
05:55 41.9 °F 39.5 °F 29.94 in South 1.0 mph 6.0 mph 91 % 0.04 in 0.00 W/m2
06:00 42.0 °F 39.6 °F 29.94 in South 2.0 mph 10.0 mph 91 % 0.04 in 0.00 W/m2
06:05 42.0 °F 39.6 °F 29.94 in Calm   7.0 mph 91 % 0.04 in 0.00 W/m2
06:10 42.0 °F 39.6 °F 29.94 in SW 10.0 mph 12.0 mph 91 % 0.00 in 0.00 W/m2
06:15 42.0 °F 39.6 °F 29.95 in SW 6.0 mph 10.0 mph 91 % 0.00 in 0.00 W/m2
06:20 42.0 °F 39.6 °F 29.95 in Calm   9.0 mph 91 % 0.00 in 0.00 W/m2
06:25 42.0 °F 39.6 °F 29.95 in SSW 5.0 mph 12.0 mph 91 % 0.00 in 0.00 W/m2
06:30 42.0 °F 39.6 °F 29.95 in South 8.0 mph 10.0 mph 91 % 0.00 in 0.00 W/m2
06:35 41.9 °F 39.5 °F 29.96 in SSW 7.0 mph 8.0 mph 91 % 0.00 in 0.00 W/m2
06:40 41.9 °F 39.5 °F 29.96 in Calm   6.0 mph 91 % 0.00 in 0.00 W/m2
06:45 41.9 °F 39.5 °F 29.96 in Calm     91 % 0.00 in 0.00 W/m2
06:50 41.9 °F 39.5 °F 29.96 in Calm     91 % 0.00 in 7.00 W/m2
06:55 41.9 °F 39.5 °F 29.97 in Calm     91 % 0.00 in 7.00 W/m2
07:00 41.9 °F 39.5 °F 29.96 in Calm     91 % 0.00 in 9.00 W/m2
07:05 41.9 °F 39.5 °F 29.97 in Calm     91 % 0.00 in 18.00 W/m2
07:10 42.0 °F 39.6 °F 29.97 in Calm     91 % 0.00 in 32.00 W/m2
07:15 42.0 °F 39.6 °F 29.97 in Calm     91 % 0.00 in 19.00 W/m2
07:20 42.0 °F 39.6 °F 29.98 in Calm     91 % 0.00 in 14.00 W/m2
07:25 42.0 °F 39.6 °F 29.97 in Calm     91 % 0.00 in 39.00 W/m2
07:31 42.0 °F 39.6 °F 29.98 in Calm     91 % 0.00 in 35.00 W/m2
07:36 41.9 °F 39.5 °F 29.98 in Calm     91 % 0.00 in 141.00 W/m2
07:41 41.9 °F 39.5 °F 29.98 in Calm     91 % 0.00 in 76.00 W/m2
07:46 41.9 °F 39.5 °F 29.98 in Calm     91 % 0.00 in 97.00 W/m2
07:51 41.9 °F 39.5 °F 29.98 in Calm     91 % 0.00 in 90.00 W/m2
07:56 42.0 °F 39.6 °F 29.98 in Calm     91 % 0.00 in 62.00 W/m2
08:01 42.0 °F 39.6 °F 29.98 in Calm     91 % 0.00 in 114.00 W/m2
08:06 42.0 °F 39.6 °F 29.98 in Calm     91 % 0.00 in 151.00 W/m2
08:11 42.0 °F 39.6 °F 29.98 in Calm   8.0 mph 91 % 0.00 in 250.00 W/m2
08:16 42.0 °F 39.6 °F 29.98 in Calm   1.0 mph 91 % 0.00 in 65.00 W/m2
08:21 41.8 °F 39.4 °F 29.98 in Calm   12.0 mph 91 % 0.00 in 213.00 W/m2
08:26 41.9 °F 39.5 °F 29.98 in Calm     91 % 0.00 in 144.00 W/m2
08:31 41.9 °F 39.5 °F 29.97 in SSE 6.0 mph 10.0 mph 91 % 0.00 in 107.00 W/m2
08:36 41.8 °F 39.1 °F 29.97 in Calm     90 % 0.00 in 200.00 W/m2
08:41 41.9 °F 39.5 °F 29.97 in Calm   7.0 mph 91 % 0.00 in 570.00 W/m2
08:46 42.0 °F 39.6 °F 29.96 in Calm     91 % 0.00 in 151.00 W/m2
08:51 42.1 °F 39.7 °F 29.96 in Calm   1.0 mph 91 % 0.00 in 142.00 W/m2
08:56 42.2 °F 39.8 °F 29.96 in Calm     91 % 0.00 in 156.00 W/m2
08:57 42.2 °F 39.8 °F 29.96 in Calm     91 % 0.00 in 160.00 W/m2
09:02 42.2 °F 39.8 °F 29.96 in Calm     91 % 0.00 in 91.00 W/m2
09:07 42.3 °F 39.9 °F 29.97 in ESE 1.0 mph 1.0 mph 91 % 0.00 in 83.00 W/m2
09:12 42.3 °F 39.9 °F 29.97 in Calm     91 % 0.00 in 69.00 W/m2
09:17 42.3 °F 39.9 °F 29.97 in Calm     91 % 0.00 in 32.00 W/m2
09:22 42.1 °F 39.7 °F 29.97 in Calm     91 % 0.00 in 26.00 W/m2
09:27 42.0 °F 39.6 °F 29.97 in Calm     91 % 0.00 in 53.00 W/m2
09:32 42.0 °F 39.6 °F 29.98 in Calm     91 % 0.00 in 58.00 W/m2
09:37 41.9 °F 39.5 °F 29.98 in Calm     91 % 0.00 in 32.00 W/m2
09:42 41.9 °F 39.5 °F 29.98 in Calm     91 % 0.00 in 32.00 W/m2
09:47 41.9 °F 39.5 °F 29.99 in Calm     91 % 0.00 in 18.00 W/m2
09:52 41.9 °F 39.2 °F 29.99 in Calm     90 % 0.00 in 23.00 W/m2
09:57 41.8 °F 39.1 °F 29.99 in Calm     90 % 0.58 in 70.00 W/m2
10:02 41.6 °F 38.9 °F 29.99 in SSE 1.0 mph 1.0 mph 90 % 0.20 in 97.00 W/m2
10:12 41.4 °F 39.0 °F 29.99 in Calm     91 % 0.10 in 127.00 W/m2
10:17 41.4 °F 39.0 °F 29.99 in Calm     91 % 0.13 in 167.00 W/m2
10:22 41.4 °F 39.0 °F 29.99 in Calm     91 % 0.09 in 90.00 W/m2
10:27 41.4 °F 39.0 °F 29.99 in Calm     91 % 0.05 in 121.00 W/m2
10:32 41.6 °F 39.2 °F 30.00 in Calm   2.0 mph 91 % 0.05 in 123.00 W/m2
10:37 41.6 °F 39.2 °F 30.00 in Calm   7.0 mph 91 % 0.07 in 137.00 W/m2
10:42 41.6 °F 39.2 °F 30.00 in SW 4.0 mph 12.0 mph 91 % 0.07 in 83.00 W/m2
10:47 41.5 °F 39.1 °F 30.00 in Calm     91 % 0.09 in 72.00 W/m2
10:52 41.5 °F 39.1 °F 30.00 in SSE 4.0 mph 11.0 mph 91 % 0.10 in 151.00 W/m2
10:57 41.6 °F 39.2 °F 30.00 in South 11.0 mph 12.0 mph 91 % 0.07 in 185.00 W/m2
11:02 41.7 °F 39.3 °F 30.00 in SSE 5.0 mph 9.0 mph 91 % 0.04 in 162.00 W/m2
11:07 41.8 °F 39.4 °F 30.00 in SE 18.0 mph 21.0 mph 91 % 0.04 in 118.00 W/m2
11:12 41.9 °F 39.5 °F 30.00 in SSE 12.0 mph 16.0 mph 91 % 0.04 in 176.00 W/m2
11:17 41.9 °F 39.5 °F 30.00 in SSE 5.0 mph 9.0 mph 91 % 0.04 in 123.00 W/m2
11:22 42.0 °F 39.6 °F 30.01 in SSE 5.0 mph 7.0 mph 91 % 0.04 in 220.00 W/m2
11:27 42.2 °F 39.8 °F 30.00 in South 5.0 mph 14.0 mph 91 % 0.00 in 169.00 W/m2
11:32 42.3 °F 39.9 °F 30.00 in South 5.0 mph 15.0 mph 91 % 0.00 in 230.00 W/m2
11:37 42.5 °F 40.1 °F 30.00 in South 4.0 mph 10.0 mph 91 % 0.00 in 139.00 W/m2
11:43 42.6 °F 40.2 °F 30.00 in South 5.0 mph 15.0 mph 91 % 0.00 in 60.00 W/m2
11:48 42.7 °F 40.3 °F 30.00 in SSW 3.0 mph 9.0 mph 91 % 0.00 in 83.00 W/m2
11:53 42.8 °F 40.4 °F 30.01 in South 9.0 mph 14.0 mph 91 % 0.00 in 63.00 W/m2
11:58 42.9 °F 40.5 °F 30.01 in South 5.0 mph 10.0 mph 91 % 0.00 in 54.00 W/m2
12:03 42.9 °F 40.5 °F 30.01 in Calm   10.0 mph 91 % 0.12 in 72.00 W/m2
12:08 43.0 °F 40.6 °F 30.02 in Calm     91 % 0.09 in 46.00 W/m2
12:13 43.0 °F 40.6 °F 30.02 in Calm   5.0 mph 91 % 0.05 in 70.00 W/m2
12:18 43.0 °F 40.6 °F 30.02 in Calm     91 % 0.00 in 26.00 W/m2
12:23 43.0 °F 40.6 °F 30.02 in SSW 3.0 mph 9.0 mph 91 % 0.00 in 21.00 W/m2
12:28 42.9 °F 40.5 °F 30.02 in Calm   6.0 mph 91 % 0.00 in 18.00 W/m2
12:33 42.8 °F 40.4 °F 30.02 in Calm     91 % 0.00 in 21.00 W/m2
12:38 42.4 °F 40.0 °F 30.02 in Calm     91 % 0.08 in 23.00 W/m2
12:43 42.0 °F 39.6 °F 30.03 in Calm     91 % 0.14 in 21.00 W/m2
12:48 41.7 °F 39.3 °F 30.03 in Calm     91 % 0.13 in 35.00 W/m2
12:53 41.4 °F 39.0 °F 30.04 in Calm     91 % 0.30 in 77.00 W/m2
12:58 41.3 °F 38.9 °F 30.04 in SSW 5.0 mph 10.0 mph 91 % 0.14 in 135.00 W/m2
13:03 41.2 °F 38.5 °F 30.03 in Calm     90 % 0.09 in 287.00 W/m2
13:08 41.1 °F 38.7 °F 30.03 in Calm     91 % 0.05 in 397.00 W/m2
13:13 41.3 °F 38.9 °F 30.03 in Calm     91 % 0.04 in 269.00 W/m2
13:18 41.4 °F 39.0 °F 30.03 in Calm     91 % 0.00 in 325.00 W/m2
13:23 41.6 °F 39.2 °F 30.04 in Calm     91 % 0.00 in 211.00 W/m2
13:28 41.8 °F 39.4 °F 30.04 in Calm     91 % 0.00 in 429.00 W/m2
13:33 42.0 °F 39.6 °F 30.04 in Calm     91 % 0.00 in 302.00 W/m2
13:38 42.2 °F 39.8 °F 30.05 in Calm     91 % 0.00 in 127.00 W/m2
13:43 42.3 °F 39.9 °F 30.05 in Calm     91 % 0.00 in 105.00 W/m2
13:48 42.3 °F 39.9 °F 30.05 in Calm     91 % 0.00 in 105.00 W/m2
13:53 42.3 °F 39.9 °F 30.06 in Calm     91 % 0.00 in 70.00 W/m2
13:58 42.2 °F 39.8 °F 30.06 in Calm     91 % 0.00 in 72.00 W/m2
14:03 42.1 °F 39.7 °F 30.06 in Calm     91 % 0.15 in 63.00 W/m2
14:08 41.9 °F 39.5 °F 30.06 in SSE 11.0 mph 12.0 mph 91 % 0.14 in 134.00 W/m2
14:13 41.7 °F 39.3 °F 30.05 in SSE 11.0 mph 12.0 mph 91 % 0.07 in 434.00 W/m2
14:18 41.7 °F 39.0 °F 30.05 in Calm   9.0 mph 90 % 0.07 in 322.00 W/m2
14:23 41.8 °F 39.1 °F 30.05 in Calm     90 % 0.06 in 877.00 W/m2
14:28 42.2 °F 39.8 °F 30.05 in Calm   10.0 mph 91 % 0.04 in 524.00 W/m2
14:33 42.7 °F 40.3 °F 30.05 in South 8.0 mph 13.0 mph 91 % 0.00 in 921.00 W/m2
14:38 43.1 °F 40.7 °F 30.05 in SSE 2.0 mph 9.0 mph 91 % 0.00 in 397.00 W/m2
14:43 43.6 °F 41.2 °F 30.05 in Calm   10.0 mph 91 % 0.00 in 659.00 W/m2
14:48 43.9 °F 41.5 °F 30.05 in Calm   13.0 mph 91 % 0.00 in 313.00 W/m2
14:53 44.0 °F 41.5 °F 30.05 in SSE 5.0 mph 12.0 mph 91 % 0.00 in 230.00 W/m2
14:58 43.9 °F 41.5 °F 30.05 in SSE 9.0 mph 12.0 mph 91 % 0.00 in 329.00 W/m2
15:03 43.8 °F 41.3 °F 30.04 in Calm   9.0 mph 91 % 0.00 in 264.00 W/m2
15:08 43.9 °F 41.5 °F 30.04 in SE 2.0 mph 12.0 mph 91 % 0.00 in 218.00 W/m2
15:13 43.8 °F 41.3 °F 30.05 in Calm     91 % 0.00 in 162.00 W/m2
15:18 43.6 °F 41.2 °F 30.05 in Calm   8.0 mph 91 % 0.00 in 137.00 W/m2
15:23 43.6 °F 40.9 °F 30.04 in Calm   1.0 mph 90 % 0.00 in 134.00 W/m2
15:28 43.3 °F 40.8 °F 30.04 in Calm     91 % 0.00 in 91.00 W/m2
15:33 43.3 °F 40.8 °F 30.04 in SSE 8.0 mph 11.0 mph 91 % 0.00 in 49.00 W/m2
15:38 43.2 °F 40.8 °F 30.05 in SSW 9.0 mph 13.0 mph 91 % 0.00 in 91.00 W/m2
15:43 43.1 °F 40.7 °F 30.05 in South 2.0 mph 12.0 mph 91 % 0.00 in 109.00 W/m2
15:48 43.0 °F 40.3 °F 30.04 in SSE 8.0 mph 11.0 mph 90 % 0.00 in 118.00 W/m2
15:53 42.9 °F 40.2 °F 30.03 in South 4.0 mph 13.0 mph 90 % 0.00 in 190.00 W/m2
15:54 42.9 °F 40.2 °F 30.04 in South 6.0 mph 13.0 mph 90 % 0.00 in 251.00 W/m2
15:59 43.0 °F 40.3 °F 30.04 in South 11.0 mph 15.0 mph 90 % 0.00 in 153.00 W/m2
16:04 43.1 °F 40.7 °F 30.04 in South 2.0 mph 22.0 mph 91 % 0.00 in 120.00 W/m2
16:09 43.2 °F 40.5 °F 30.04 in South 4.0 mph 13.0 mph 90 % 0.00 in 121.00 W/m2
16:14 43.3 °F 40.6 °F 30.04 in South 10.0 mph 17.0 mph 90 % 0.00 in 141.00 W/m2
16:19 43.4 °F 40.7 °F 30.04 in South 6.0 mph 17.0 mph 90 % 0.00 in 100.00 W/m2
16:24 43.4 °F 40.7 °F 30.04 in South 10.0 mph 15.0 mph 90 % 0.00 in 90.00 W/m2
16:29 43.5 °F 40.8 °F 30.04 in SSW 4.0 mph 19.0 mph 90 % 0.00 in 116.00 W/m2
16:34 43.6 °F 40.9 °F 30.04 in South 9.0 mph 18.0 mph 90 % 0.00 in 121.00 W/m2
16:39 43.7 °F 41.0 °F 30.04 in Calm   18.0 mph 90 % 0.00 in 163.00 W/m2
16:44 43.8 °F 41.1 °F 30.04 in SSW 11.0 mph 23.0 mph 90 % 0.00 in 149.00 W/m2
16:49 43.8 °F 41.3 °F 30.04 in South 4.0 mph 20.0 mph 91 % 0.00 in 51.00 W/m2
16:54 43.8 °F 41.3 °F 30.05 in WSW 12.0 mph 16.0 mph 91 % 0.00 in 46.00 W/m2
16:59 43.8 °F 41.3 °F 30.05 in SW 2.0 mph 14.0 mph 91 % 0.00 in 18.00 W/m2
17:04 43.7 °F 41.0 °F 30.07 in WSW 4.0 mph 16.0 mph 90 % 0.00 in 18.00 W/m2
17:09 43.5 °F 41.0 °F 30.07 in West 6.0 mph 12.0 mph 91 % 0.00 in 12.00 W/m2
17:14 42.9 °F 40.5 °F 30.08 in WSW 9.0 mph 13.0 mph 91 % 0.00 in 26.00 W/m2
17:19 42.2 °F 39.8 °F 30.07 in West 4.0 mph 16.0 mph 91 % 0.25 in 35.00 W/m2
17:24 41.7 °F 39.3 °F 30.08 in SW 19.0 mph 21.0 mph 91 % 0.22 in 65.00 W/m2
17:30 41.5 °F 39.1 °F 30.08 in South 6.0 mph 15.0 mph 91 % 0.15 in 42.00 W/m2
17:34 41.4 °F 39.0 °F 30.08 in South 9.0 mph 15.0 mph 91 % 0.08 in 16.00 W/m2
17:39 41.2 °F 38.8 °F 30.08 in SW 8.0 mph 10.0 mph 91 % 0.14 in 19.00 W/m2
17:45 41.0 °F 38.6 °F 30.08 in West 1.0 mph 12.0 mph 91 % 0.27 in 19.00 W/m2
17:50 40.8 °F 38.4 °F 30.08 in SW 4.0 mph 12.0 mph 91 % 0.15 in 16.00 W/m2
17:55 40.7 °F 38.3 °F 30.08 in WSW 3.0 mph 8.0 mph 91 % 0.18 in 16.00 W/m2
18:00 40.6 °F 38.2 °F 30.08 in WSW 3.0 mph 7.0 mph 91 % 0.08 in 16.00 W/m2
18:05 40.6 °F 37.9 °F 30.09 in SSE 6.0 mph 10.0 mph 90 % 0.07 in 21.00 W/m2
18:10 40.5 °F 37.8 °F 30.09 in SSW 10.0 mph 11.0 mph 90 % 0.07 in 14.00 W/m2
18:15 40.6 °F 38.2 °F 30.09 in SSW 7.0 mph 14.0 mph 91 % 0.07 in 11.00 W/m2
18:20 40.6 °F 38.2 °F 30.09 in Calm   7.0 mph 91 % 0.06 in 7.00 W/m2
18:25 40.7 °F 38.3 °F 30.09 in WSW 8.0 mph 8.0 mph 91 % 0.04 in 7.00 W/m2
18:30 40.8 °F 38.4 °F 30.10 in Calm   6.0 mph 91 % 0.18 in 7.00 W/m2
18:35 40.8 °F 38.4 °F 30.10 in Calm     91 % 0.43 in 9.00 W/m2
18:40 40.6 °F 38.2 °F 30.10 in Calm     91 % 0.44 in 19.00 W/m2
18:45 40.2 °F 37.8 °F 30.09 in Calm     91 % 0.13 in 26.00 W/m2
18:50 39.9 °F 37.5 °F 30.09 in SSE 10.0 mph 13.0 mph 91 % 0.10 in 9.00 W/m2
18:55 39.7 °F 37.0 °F 30.09 in Calm   11.0 mph 90 % 0.05 in 11.00 W/m2
19:00 39.7 °F 37.0 °F 30.10 in South 3.0 mph 16.0 mph 90 % 0.04 in 9.00 W/m2
19:05 39.7 °F 37.0 °F 30.10 in SSW 5.0 mph 8.0 mph 90 % 0.00 in 7.00 W/m2
19:10 39.8 °F 37.1 °F 30.10 in SSW 6.0 mph 11.0 mph 90 % 0.00 in 0.00 W/m2
19:15 40.0 °F 37.3 °F 30.10 in South 7.0 mph 11.0 mph 90 % 0.00 in 0.00 W/m2
19:20 40.1 °F 37.7 °F 30.10 in South 4.0 mph 8.0 mph 91 % 0.05 in 0.00 W/m2
19:25 40.2 °F 37.8 °F 30.11 in SSW 3.0 mph 12.0 mph 91 % 0.05 in 0.00 W/m2
19:30 40.4 °F 38.0 °F 30.11 in SSW 2.0 mph 11.0 mph 91 % 0.05 in 0.00 W/m2
19:35 40.7 °F 38.3 °F 30.12 in West 5.0 mph 12.0 mph 91 % 0.00 in 0.00 W/m2
19:40 40.5 °F 38.1 °F 30.12 in West 5.0 mph 12.0 mph 91 % 0.00 in 0.00 W/m2
19:45 39.9 °F 37.5 °F 30.12 in Calm   1.0 mph 91 % 0.00 in 0.00 W/m2
19:50 39.7 °F 37.3 °F 30.12 in Calm     91 % 0.00 in 0.00 W/m2
19:55 39.6 °F 37.2 °F 30.12 in Calm     91 % 0.00 in 0.00 W/m2
20:00 39.5 °F 37.1 °F 30.12 in Calm     91 % 0.00 in 0.00 W/m2
20:10 39.3 °F 36.9 °F 30.13 in Calm     91 % 0.00 in 0.00 W/m2
20:15 39.3 °F 36.9 °F 30.13 in Calm     91 % 0.00 in 0.00 W/m2
20:20 39.3 °F 36.9 °F 30.13 in Calm     91 % 0.00 in 0.00 W/m2
20:25 39.4 °F 37.0 °F 30.13 in Calm   9.0 mph 91 % 0.00 in 0.00 W/m2
20:30 39.4 °F 37.0 °F 30.14 in South 6.0 mph 10.0 mph 91 % 0.00 in 0.00 W/m2
20:35 39.5 °F 37.1 °F 30.14 in South 2.0 mph 9.0 mph 91 % 0.00 in 0.00 W/m2
20:40 39.7 °F 37.3 °F 30.15 in South 9.0 mph 10.0 mph 91 % 0.00 in 0.00 W/m2
20:45 39.8 °F 37.4 °F 30.15 in SSE 6.0 mph 12.0 mph 91 % 0.00 in 0.00 W/m2
20:50 40.0 °F 37.6 °F 30.16 in SSW 1.0 mph 12.0 mph 91 % 0.00 in 0.00 W/m2
20:55 40.1 °F 37.7 °F 30.17 in Calm   1.0 mph 91 % 0.00 in 0.00 W/m2
21:00 39.9 °F 37.5 °F 30.17 in Calm     91 % 0.00 in 0.00 W/m2
21:05 39.7 °F 37.3 °F 30.17 in Calm     91 % 0.00 in 0.00 W/m2
21:10 39.5 °F 37.1 °F 30.17 in Calm     91 % 0.00 in 0.00 W/m2
21:15 39.4 °F 37.0 °F 30.17 in Calm     91 % 0.00 in 0.00 W/m2
21:21 39.3 °F 36.9 °F 30.18 in Calm     91 % 0.00 in 0.00 W/m2
21:26 39.2 °F 36.8 °F 30.18 in Calm     91 % 0.00 in 0.00 W/m2
21:31 39.2 °F 36.8 °F 30.18 in Calm     91 % 0.00 in 0.00 W/m2
21:36 39.1 °F 36.7 °F 30.18 in Calm     91 % 0.00 in 0.00 W/m2
21:46 39.2 °F 36.8 °F 30.18 in Calm     91 % 0.00 in 0.00 W/m2
21:51 39.2 °F 36.8 °F 30.18 in Calm     91 % 0.00 in 0.00 W/m2
21:56 39.2 °F 36.8 °F 30.19 in Calm     91 % 0.00 in 0.00 W/m2
22:01 39.3 °F 36.9 °F 30.19 in Calm     91 % 0.00 in 0.00 W/m2
22:06 39.4 °F 37.0 °F 30.19 in Calm     91 % 0.00 in 0.00 W/m2
22:11 39.5 °F 37.1 °F 30.19 in Calm     91 % 0.00 in 0.00 W/m2
22:16 39.7 °F 37.3 °F 30.19 in Calm     91 % 0.00 in 0.00 W/m2
22:21 39.8 °F 37.4 °F 30.19 in Calm     91 % 0.00 in 0.00 W/m2
22:26 39.9 °F 37.5 °F 30.19 in Calm     91 % 0.00 in 0.00 W/m2
22:31 40.0 °F 37.6 °F 30.19 in Calm     91 % 0.00 in 0.00 W/m2
22:36 40.0 °F 37.6 °F 30.19 in Calm     91 % 0.00 in 0.00 W/m2
22:41 40.1 °F 37.7 °F 30.19 in Calm     91 % 0.00 in 0.00 W/m2
22:46 40.2 °F 37.8 °F 30.19 in Calm     91 % 0.00 in 0.00 W/m2
22:51 40.2 °F 37.8 °F 30.19 in Calm     91 % 0.00 in 0.00 W/m2
22:56 40.3 °F 37.9 °F 30.19 in Calm     91 % 0.00 in 0.00 W/m2
23:01 40.3 °F 37.9 °F 30.19 in Calm     91 % 0.00 in 0.00 W/m2
23:11 40.4 °F 38.0 °F 30.19 in Calm     91 % 0.00 in 0.00 W/m2
23:16 40.4 °F 38.0 °F 30.19 in Calm     91 % 0.00 in 0.00 W/m2
23:21 40.4 °F 38.0 °F 30.19 in Calm     91 % 0.00 in 0.00 W/m2
23:26 40.4 °F 38.0 °F 30.19 in Calm     91 % 0.00 in 0.00 W/m2
23:31 40.4 °F 38.0 °F 30.19 in Calm     91 % 0.00 in 0.00 W/m2
23:36 40.4 °F 38.0 °F 30.19 in Calm     91 % 0.00 in 0.00 W/m2
23:41 40.4 °F 38.0 °F 30.19 in Calm     91 % 0.00 in 0.00 W/m2
23:46 40.3 °F 37.9 °F 30.19 in Calm     91 % 0.00 in 0.00 W/m2
23:51 40.2 °F 37.8 °F 30.20 in Calm     91 % 0.00 in 0.00 W/m2
23:56 40.2 °F 37.8 °F 30.20 in Calm     91 % 0.00 in 0.00 W/m2
Juneau County Weather
Compliments of Weather Underground - 4.5 mb
 WU-history PHP script courtesy of   Juneau County Weather.
powered by Cumulus v1.9.3 (1059)
Ambient Weather VWS v14.00
Top Contact Website Map Copyright © 2007 - 2018 Foresthillweather.com Never base important decisions on this or any weather information obtained from the Internet